This is the latest recevied weather packets stored in our database for station/object DB2AG-13. If no packets are shown the sender has not sent any weather packets the latest 10 day(s).
| Time | Temp. | Humidity | Pressure | Rain* | Wind** | Luminosity | Snow |
|---|---|---|---|---|---|---|---|
| 1788013695 | 22.78° C | 44% | 1013.6 hPa | - | - | - | - |
| 1788013164 | 23.33° C | 44% | 1013.6 hPa | - | - | - | - |
| 1788012628 | 23.33° C | 43% | 1013.6 hPa | - | - | - | - |
| 1788012096 | 23.89° C | 42% | 1013.6 hPa | - | - | - | - |
| 1788011563 | 24.44° C | 40% | 1013.7 hPa | - | - | - | - |
| 1788011028 | 25° C | 39% | 1013.6 hPa | - | - | - | - |
| 1788010491 | 25.56° C | 37% | 1013.6 hPa | - | - | - | - |
| 1788009954 | 26.67° C | 36% | 1013.6 hPa | - | - | - | - |
| 1788009420 | 26.11° C | 38% | 1013.6 hPa | - | - | - | - |
| 1788008885 | 25.56° C | 39% | 1013.7 hPa | - | - | - | - |
| 1788008340 | 23.89° C | 42% | 1013.7 hPa | - | - | - | - |
| 1788007257 | 23.89° C | 42% | 1013.5 hPa | - | - | - | - |
| 1788006713 | 23.89° C | 42% | 1013.6 hPa | - | - | - | - |
| 1788006170 | 24.44° C | 40% | 1013.6 hPa | - | - | - | - |
| 1788005626 | 25.56° C | 37% | 1013.6 hPa | - | - | - | - |
| 1788005088 | 26.67° C | 37% | 1013.6 hPa | - | - | - | - |
| 1788004549 | 26.67° C | 38% | 1013.7 hPa | - | - | - | - |
| 1788004009 | 26.67° C | 38% | 1013.9 hPa | - | - | - | - |
| 1788003475 | 26.67° C | 39% | 1013.8 hPa | - | - | - | - |
| 1788002939 | 26.11° C | 42% | 1013.8 hPa | - | - | - | - |
| 1788002394 | 25.56° C | 44% | 1014 hPa | - | - | - | - |
| 1788001852 | 24.44° C | 45% | 1014 hPa | - | - | - | - |
| 1788001309 | 23.89° C | 45% | 1014 hPa | - | - | - | - |
| 1788000774 | 23.33° C | 45% | 1013.9 hPa | - | - | - | - |
| 1788000234 | 24.44° C | 43% | 1014.1 hPa | - | - | - | - |
* Rain since midnight (hover to see other rain measurements)
** Current wind speed in m/s (hover to see current wind gust speed)